Time;durP1;ratioP1;P1;durP2;ratioP2;P2;SDS_P1;SDS_P2;PMS_P1;PMS_P2;Temp;Humidity;BMP_temperature;BMP_pressure;BME280_temperature;BME280_humidity;BME280_pressure;Samples;Min_cycle;Max_cycle;Signal;HPM_P1;HPM_P2
2024/01/29 00:01:18;;;;;;;22.63;16.05;;;5.10;99.90;;;;;;5074998;28;20139;-76
2024/01/29 00:03:45;;;;;;;23.92;16.67;;;5.10;99.90;;;;;;5087105;28;20044;-77
2024/01/29 00:06:10;;;;;;;23.38;14.75;;;5.10;99.90;;;;;;5076661;28;20084;-76
2024/01/29 00:08:36;;;;;;;26.33;16.20;;;5.10;99.90;;;;;;5074541;28;20071;-77
2024/01/29 00:11:02;;;;;;;25.67;16.45;;;5.00;99.90;;;;;;5071289;28;20110;-76
2024/01/29 00:13:27;;;;;;;22.23;15.45;;;5.00;99.90;;;;;;5079044;28;20128;-76
2024/01/29 00:15:54;;;;;;;32.63;16.05;;;5.00;99.90;;;;;;5068917;28;20500;-76
2024/01/29 00:18:20;;;;;;;23.58;15.77;;;4.90;99.90;;;;;;5074509;28;20509;-76
2024/01/29 00:20:45;;;;;;;22.77;15.88;;;4.90;99.90;;;;;;5077300;28;20127;-76
2024/01/29 00:23:11;;;;;;;26.77;15.30;;;4.90;99.90;;;;;;5081910;28;20048;-76
2024/01/29 00:25:37;;;;;;;25.55;15.13;;;4.90;99.90;;;;;;5073551;28;20052;-77
2024/01/29 00:28:02;;;;;;;22.92;15.18;;;4.80;99.90;;;;;;5074036;28;20102;-76
2024/01/29 00:30:28;;;;;;;23.50;15.48;;;4.90;99.90;;;;;;5080663;28;19958;-77
2024/01/29 00:32:53;;;;;;;20.58;14.93;;;4.90;99.90;;;;;;5085284;28;20048;-76
2024/01/29 00:35:19;;;;;;;27.05;16.67;;;4.90;99.90;;;;;;5081664;28;20127;-77
2024/01/29 00:37:46;;;;;;;22.27;15.30;;;4.80;99.90;;;;;;5085375;28;20121;-77
2024/01/29 00:40:12;;;;;;;23.48;15.55;;;4.80;99.90;;;;;;5086359;28;20102;-76
2024/01/29 00:42:37;;;;;;;23.38;15.88;;;4.70;99.90;;;;;;5077267;28;20496;-76
2024/01/29 00:45:03;;;;;;;22.60;15.68;;;4.70;99.90;;;;;;5076812;28;20052;-77
2024/01/29 00:47:29;;;;;;;20.23;15.23;;;4.70;99.90;;;;;;5078123;28;20886;-76
2024/01/29 00:49:55;;;;;;;26.30;14.40;;;4.70;99.90;;;;;;5080382;28;20048;-76
2024/01/29 00:52:20;;;;;;;22.88;16.23;;;4.70;99.90;;;;;;5077502;28;20052;-76
2024/01/29 00:54:46;;;;;;;21.65;15.07;;;4.80;99.90;;;;;;5080904;28;20417;-77
2024/01/29 00:57:15;;;;;;;32.63;15.90;;;4.80;99.90;;;;;;5086192;28;20083;-76
2024/01/29 00:59:42;;;;;;;24.92;15.75;;;4.70;99.90;;;;;;5073047;28;20842;-76
2024/01/29 01:02:07;;;;;;;25.35;15.85;;;4.70;99.90;;;;;;5061728;28;20078;-76
2024/01/29 01:04:33;;;;;;;20.58;15.00;;;4.70;99.90;;;;;;5079401;28;20142;-77
2024/01/29 01:06:58;;;;;;;21.55;15.15;;;4.70;99.90;;;;;;5077687;28;20048;-76
2024/01/29 01:09:24;;;;;;;23.05;15.85;;;4.80;99.90;;;;;;5074324;28;20045;-77
2024/01/29 01:11:50;;;;;;;25.23;16.23;;;4.80;99.90;;;;;;5085540;28;20104;-76
2024/01/29 01:14:16;;;;;;;23.98;15.27;;;4.80;99.90;;;;;;5076903;28;20798;-76
2024/01/29 01:16:41;;;;;;;23.40;15.15;;;4.80;99.90;;;;;;5079991;28;20076;-77
2024/01/29 01:19:07;;;;;;;24.38;15.43;;;4.80;99.90;;;;;;5085286;28;20125;-76
2024/01/29 01:21:33;;;;;;;21.10;14.85;;;4.80;99.90;;;;;;5077396;28;20064;-77
2024/01/29 01:23:58;;;;;;;24.05;14.68;;;4.80;99.90;;;;;;5077049;28;20047;-76
2024/01/29 01:26:24;;;;;;;22.02;15.80;;;4.70;99.90;;;;;;5084368;28;20044;-76
2024/01/29 01:28:50;;;;;;;20.95;15.23;;;4.80;99.90;;;;;;5068200;28;20515;-77
2024/01/29 01:31:15;;;;;;;19.27;14.65;;;4.70;99.90;;;;;;5068374;28;20040;-76
2024/01/29 01:33:42;;;;;;;21.55;14.52;;;4.70;99.90;;;;;;5084527;28;20044;-76
2024/01/29 01:36:07;;;;;;;24.67;15.30;;;4.70;99.90;;;;;;5071915;28;20048;-76
2024/01/29 01:38:33;;;;;;;21.48;15.00;;;4.70;99.90;;;;;;5080405;28;20053;-76
2024/01/29 01:40:59;;;;;;;21.60;15.43;;;4.70;99.90;;;;;;5083410;28;20043;-76
2024/01/29 01:43:24;;;;;;;25.10;15.75;;;4.70;99.90;;;;;;5077789;28;20055;-76
2024/01/29 01:46:13;;;;;;;20.20;15.57;;;4.70;99.90;;;;;;5084565;28;20497;-76
2024/01/29 01:48:39;;;;;;;27.85;16.77;;;4.70;99.90;;;;;;5068104;28;20413;-76
2024/01/29 01:51:05;;;;;;;27.15;15.13;;;4.60;99.90;;;;;;5075321;28;20036;-76
2024/01/29 01:53:34;;;;;;;24.05;15.88;;;4.60;99.90;;;;;;5077954;28;20447;-76
2024/01/29 01:56:00;;;;;;;22.50;15.07;;;4.60;99.90;;;;;;5077866;28;20400;-76
2024/01/29 01:58:27;;;;;;;19.88;13.98;;;4.60;99.90;;;;;;5080051;28;20112;-77
2024/01/29 02:00:55;;;;;;;20.98;14.60;;;4.60;99.90;;;;;;5083134;28;20052;-75
2024/01/29 02:03:21;;;;;;;20.65;14.85;;;4.60;99.90;;;;;;5078864;28;20048;-76
2024/01/29 02:05:47;;;;;;;22.88;15.55;;;4.60;99.90;;;;;;5086914;28;20562;-76
2024/01/29 02:08:15;;;;;;;23.88;16.60;;;4.60;99.90;;;;;;5077247;28;20421;-77
2024/01/29 02:10:40;;;;;;;26.73;16.10;;;4.60;99.90;;;;;;5072153;28;20041;-76
2024/01/29 02:13:15;;;;;;;23.75;15.13;;;4.60;99.90;;;;;;5078911;28;20451;-76
2024/01/29 02:15:41;;;;;;;19.42;14.35;;;4.60;99.90;;;;;;5070221;28;20113;-76
2024/01/29 02:18:07;;;;;;;21.95;15.63;;;4.60;99.90;;;;;;5074999;28;20112;-76
2024/01/29 02:20:36;;;;;;;22.67;14.45;;;4.60;99.90;;;;;;5081603;28;20036;-76
2024/01/29 02:23:03;;;;;;;23.27;15.35;;;4.60;99.90;;;;;;5070255;28;20462;-76
2024/01/29 02:25:28;;;;;;;29.02;15.50;;;4.50;99.90;;;;;;5070981;28;20045;-76
2024/01/29 02:27:54;;;;;;;16.98;14.10;;;4.50;99.90;;;;;;5072265;28;20047;-76
2024/01/29 02:30:20;;;;;;;23.10;15.05;;;4.50;99.90;;;;;;5070535;28;20130;-76
2024/01/29 02:32:45;;;;;;;21.05;15.80;;;4.60;99.90;;;;;;5077243;28;20563;-76
2024/01/29 02:35:11;;;;;;;21.67;15.35;;;4.50;99.90;;;;;;5072966;28;20048;-76
2024/01/29 02:37:37;;;;;;;21.95;14.32;;;4.50;99.90;;;;;;5083120;28;20154;-77
2024/01/29 02:40:04;;;;;;;23.80;16.35;;;4.50;99.90;;;;;;5068566;28;20455;-77
2024/01/29 02:42:30;;;;;;;19.55;15.05;;;4.50;99.90;;;;;;5070190;28;20397;-76
2024/01/29 02:44:55;;;;;;;24.80;15.38;;;4.40;99.90;;;;;;5076280;28;20054;-76
2024/01/29 02:47:21;;;;;;;19.77;15.88;;;4.40;99.90;;;;;;5064367;28;20048;-76
2024/01/29 02:49:47;;;;;;;27.73;15.48;;;4.40;99.90;;;;;;5069454;28;20047;-76
2024/01/29 02:52:13;;;;;;;19.95;15.73;;;4.30;99.90;;;;;;5070721;28;20048;-76
2024/01/29 02:54:41;;;;;;;20.33;15.82;;;4.30;99.90;;;;;;5078296;28;20052;-76
2024/01/29 02:57:10;;;;;;;26.55;16.42;;;4.30;99.90;;;;;;5074716;28;20537;-76
2024/01/29 02:59:35;;;;;;;19.00;14.75;;;4.30;99.90;;;;;;5056418;28;20127;-76
2024/01/29 03:02:03;;;;;;;22.10;14.85;;;4.30;99.90;;;;;;5074810;28;20055;-76
2024/01/29 03:04:29;;;;;;;27.13;15.87;;;4.30;99.90;;;;;;5071844;28;20048;-76
2024/01/29 03:06:54;;;;;;;21.25;15.63;;;4.20;99.90;;;;;;5068360;28;20137;-76
2024/01/29 03:09:20;;;;;;;24.40;14.95;;;4.10;99.90;;;;;;5069836;28;20127;-76
2024/01/29 03:11:46;;;;;;;17.95;14.68;;;4.10;99.90;;;;;;5068755;28;20043;-76
2024/01/29 03:14:12;;;;;;;20.08;15.93;;;4.00;99.90;;;;;;5067656;28;20056;-76
2024/01/29 03:16:38;;;;;;;18.60;14.30;;;3.90;99.90;;;;;;5068391;28;20177;-77
2024/01/29 03:19:03;;;;;;;21.45;15.23;;;3.90;99.90;;;;;;5081973;28;20573;-76
2024/01/29 03:21:29;;;;;;;21.67;15.27;;;3.90;99.90;;;;;;5081946;28;20048;-76
2024/01/29 03:23:55;;;;;;;20.25;15.90;;;3.80;99.90;;;;;;5073023;28;20044;-76
2024/01/29 03:26:21;;;;;;;20.38;15.82;;;3.80;99.90;;;;;;5075113;28;20397;-76
2024/01/29 03:28:47;;;;;;;22.50;16.15;;;3.80;99.90;;;;;;5070666;28;20033;-76
2024/01/29 03:31:12;;;;;;;20.40;15.98;;;3.80;99.90;;;;;;5077817;28;20045;-76
2024/01/29 03:33:38;;;;;;;20.27;15.63;;;3.80;99.90;;;;;;5076933;28;20051;-76
2024/01/29 03:36:05;;;;;;;20.35;15.70;;;3.80;99.90;;;;;;5074308;28;20046;-76
2024/01/29 03:38:30;;;;;;;21.85;16.17;;;3.80;99.90;;;;;;5071797;28;20260;-76
2024/01/29 03:40:57;;;;;;;25.00;16.05;;;3.80;99.90;;;;;;5086413;28;20134;-77
2024/01/29 03:43:22;;;;;;;19.95;15.27;;;3.70;99.90;;;;;;5081383;28;20044;-76
2024/01/29 03:45:48;;;;;;;18.42;14.52;;;3.70;99.90;;;;;;5081477;28;20063;-76
2024/01/29 03:48:14;;;;;;;18.02;14.10;;;3.70;99.90;;;;;;5070289;28;20051;-76
2024/01/29 03:50:39;;;;;;;19.48;15.35;;;3.70;99.90;;;;;;5079146;28;20036;-76
2024/01/29 03:53:05;;;;;;;23.98;15.85;;;3.70;99.90;;;;;;5055928;28;20051;-76
2024/01/29 03:55:30;;;;;;;17.80;14.18;;;3.60;99.90;;;;;;5081013;28;20056;-76
2024/01/29 03:57:56;;;;;;;23.08;16.75;;;3.70;99.90;;;;;;5067481;28;20048;-76
2024/01/29 04:00:23;;;;;;;17.65;15.15;;;3.60;99.90;;;;;;5052180;28;20472;-76
2024/01/29 04:02:49;;;;;;;22.70;15.25;;;3.70;99.90;;;;;;5072004;28;20048;-76
2024/01/29 04:05:16;;;;;;;23.30;15.70;;;3.70;99.90;;;;;;5069325;28;20506;-76
2024/01/29 04:07:42;;;;;;;19.60;15.40;;;3.60;99.90;;;;;;5078405;28;20040;-76
2024/01/29 04:10:08;;;;;;;20.55;14.82;;;3.60;99.90;;;;;;5071569;28;20394;-76
2024/01/29 04:12:34;;;;;;;20.05;14.63;;;3.60;99.90;;;;;;5077776;28;20403;-76
2024/01/29 04:14:59;;;;;;;25.13;15.60;;;3.60;99.90;;;;;;5073597;28;20094;-76
2024/01/29 04:17:25;;;;;;;21.42;14.57;;;3.50;99.90;;;;;;5077061;28;20520;-76
2024/01/29 04:19:50;;;;;;;16.75;14.05;;;3.50;99.90;;;;;;5085094;28;20040;-76
2024/01/29 04:22:16;;;;;;;21.27;15.65;;;3.60;99.90;;;;;;5074072;28;20047;-76
2024/01/29 04:24:41;;;;;;;20.38;16.05;;;3.60;99.90;;;;;;5074578;28;20048;-76
2024/01/29 04:27:07;;;;;;;22.35;14.93;;;3.60;99.90;;;;;;5074216;28;20051;-75
2024/01/29 04:29:33;;;;;;;16.88;14.85;;;3.60;99.90;;;;;;5067792;28;20060;-75
2024/01/29 04:31:58;;;;;;;20.35;15.10;;;3.60;99.90;;;;;;5072459;28;20059;-76
2024/01/29 04:34:24;;;;;;;21.63;15.48;;;3.60;99.90;;;;;;5072666;28;20609;-75
2024/01/29 04:36:50;;;;;;;22.55;15.70;;;3.60;99.90;;;;;;5071407;28;20044;-75
2024/01/29 04:39:15;;;;;;;21.00;15.35;;;3.60;99.90;;;;;;5073898;28;20139;-75
2024/01/29 04:41:41;;;;;;;19.75;15.60;;;3.60;99.90;;;;;;5069209;28;20048;-75
2024/01/29 04:44:06;;;;;;;19.63;15.52;;;3.60;99.90;;;;;;5078773;28;20040;-75
2024/01/29 04:46:32;;;;;;;24.25;15.70;;;3.60;99.90;;;;;;5073042;28;20048;-75
2024/01/29 04:48:58;;;;;;;16.92;14.90;;;3.60;99.90;;;;;;5077650;28;20048;-76
2024/01/29 04:51:25;;;;;;;17.23;13.98;;;3.60;99.90;;;;;;5080019;28;20165;-76
2024/01/29 04:53:51;;;;;;;20.40;16.67;;;3.60;99.90;;;;;;5081794;28;20489;-75
2024/01/29 04:56:17;;;;;;;24.33;15.82;;;3.60;99.90;;;;;;5078667;28;20052;-76
2024/01/29 04:58:42;;;;;;;21.60;15.77;;;3.60;99.90;;;;;;5082152;28;20066;-76
2024/01/29 05:01:09;;;;;;;20.33;16.30;;;3.50;99.90;;;;;;5074570;28;20032;-77
2024/01/29 05:03:36;;;;;;;21.33;16.08;;;3.60;99.90;;;;;;5073210;28;20051;-76
2024/01/29 05:06:02;;;;;;;18.83;16.20;;;3.60;99.90;;;;;;5080733;28;20040;-75
2024/01/29 05:08:28;;;;;;;23.63;16.58;;;3.50;99.90;;;;;;5076732;28;20468;-76
2024/01/29 05:10:53;;;;;;;23.10;16.02;;;3.50;99.90;;;;;;5079298;28;20048;-75
2024/01/29 05:13:19;;;;;;;19.13;15.15;;;3.50;99.90;;;;;;5078787;28;20044;-75
2024/01/29 05:15:45;;;;;;;19.08;15.95;;;3.50;99.90;;;;;;5054544;28;20198;-75
2024/01/29 05:18:11;;;;;;;19.33;15.35;;;3.50;99.90;;;;;;5073020;28;20047;-75
2024/01/29 05:20:36;;;;;;;18.48;15.30;;;3.50;99.90;;;;;;5077822;28;20053;-75
2024/01/29 05:23:02;;;;;;;21.15;16.13;;;3.60;99.90;;;;;;5068169;28;20036;-75
2024/01/29 05:25:28;;;;;;;18.40;14.57;;;3.60;99.90;;;;;;5079628;28;20040;-76
2024/01/29 05:27:54;;;;;;;17.23;15.38;;;3.60;99.90;;;;;;5069470;28;20099;-76
2024/01/29 05:30:20;;;;;;;18.10;16.08;;;3.60;99.90;;;;;;5072880;28;20049;-75
2024/01/29 05:32:46;;;;;;;20.48;15.93;;;3.60;99.90;;;;;;5070453;28;20055;-75
2024/01/29 05:35:12;;;;;;;18.40;15.80;;;3.60;99.90;;;;;;5074619;28;20541;-76
2024/01/29 05:37:38;;;;;;;22.23;16.05;;;3.70;99.90;;;;;;5068507;28;20056;-76
2024/01/29 05:40:04;;;;;;;18.13;15.88;;;3.70;99.90;;;;;;5073595;28;20525;-76
2024/01/29 05:42:31;;;;;;;19.10;15.65;;;3.70;99.90;;;;;;5071115;28;20558;-76
2024/01/29 05:44:56;;;;;;;18.40;15.63;;;3.70;99.90;;;;;;5084913;28;20044;-76
2024/01/29 05:47:25;;;;;;;19.90;15.85;;;3.70;99.90;;;;;;5081576;28;20051;-76
2024/01/29 05:49:50;;;;;;;;;;;3.80;99.90;;;;;;5085428;28;20505;-76
2024/01/29 05:52:16;;;;;;;20.70;15.90;;;3.70;99.90;;;;;;5070985;28;19931;-76
2024/01/29 05:54:42;;;;;;;22.10;15.93;;;3.80;99.90;;;;;;5078832;28;20056;-76
2024/01/29 05:57:10;;;;;;;17.00;15.23;;;3.80;99.90;;;;;;5070293;28;20063;-76
2024/01/29 05:59:40;;;;;;;22.67;16.35;;;3.80;99.90;;;;;;5076647;28;20052;-76
2024/01/29 06:02:06;;;;;;;18.42;15.57;;;3.80;99.90;;;;;;5089752;28;20052;-76
2024/01/29 06:04:32;;;;;;;17.75;15.35;;;3.80;99.90;;;;;;5075911;28;20036;-75
2024/01/29 06:06:57;;;;;;;19.15;15.15;;;3.80;99.90;;;;;;5060484;28;20063;-76
2024/01/29 06:09:23;;;;;;;19.70;15.95;;;3.80;99.90;;;;;;5075998;28;20087;-76
2024/01/29 06:11:53;;;;;;;19.02;16.08;;;3.80;99.90;;;;;;5074786;28;20037;-76
2024/01/29 06:14:19;;;;;;;19.30;15.98;;;3.80;99.90;;;;;;5073985;28;20586;-76
2024/01/29 06:16:44;;;;;;;18.00;15.23;;;3.80;99.90;;;;;;5080458;28;20039;-75
2024/01/29 06:19:15;;;;;;;21.80;16.55;;;3.80;99.90;;;;;;5079560;28;20134;-75
2024/01/29 06:21:50;;;;;;;18.25;16.30;;;3.80;99.90;;;;;;5059537;28;20056;-77
2024/01/29 06:24:16;;;;;;;18.23;15.88;;;3.80;99.90;;;;;;5080216;28;20188;-76
2024/01/29 06:26:42;;;;;;;19.83;16.67;;;3.70;99.90;;;;;;5083089;28;20060;-75
2024/01/29 06:29:08;;;;;;;21.05;16.85;;;3.70;99.90;;;;;;5082181;28;20048;-75
2024/01/29 06:31:43;;;;;;;20.90;16.80;;;3.70;99.90;;;;;;5084473;28;20036;-76
2024/01/29 06:34:09;;;;;;;21.52;17.17;;;3.70;99.90;;;;;;5081842;28;20126;-76
2024/01/29 06:36:35;;;;;;;20.67;16.10;;;3.70;99.90;;;;;;5078199;28;20048;-77
2024/01/29 06:39:00;;;;;;;20.33;17.75;;;3.70;99.90;;;;;;5082444;28;20727;-77
2024/01/29 06:41:27;;;;;;;20.45;17.08;;;3.80;99.90;;;;;;5082027;28;20056;-76
2024/01/29 06:43:54;;;;;;;19.75;16.98;;;3.80;99.90;;;;;;5085864;28;20075;-76
2024/01/29 06:46:20;;;;;;;20.67;17.08;;;3.80;99.90;;;;;;5075224;28;20587;-75
2024/01/29 06:48:46;;;;;;;19.15;15.50;;;3.80;99.90;;;;;;5078513;28;20048;-76
2024/01/29 06:51:12;;;;;;;20.25;16.88;;;3.80;99.90;;;;;;5081596;28;20592;-76
2024/01/29 06:53:38;;;;;;;19.80;17.70;;;3.80;99.90;;;;;;5074803;28;20052;-76
2024/01/29 06:56:04;;;;;;;24.58;18.00;;;3.80;99.90;;;;;;5076076;28;20516;-76
2024/01/29 06:58:30;;;;;;;18.17;16.27;;;3.80;99.90;;;;;;5073320;28;20482;-75
2024/01/29 07:00:56;;;;;;;25.02;16.35;;;3.80;99.90;;;;;;5066181;28;20517;-75
2024/01/29 07:03:22;;;;;;;22.02;17.50;;;3.80;99.90;;;;;;5075069;28;20090;-76
2024/01/29 07:05:48;;;;;;;23.73;16.88;;;3.80;99.90;;;;;;5076228;28;20498;-76
2024/01/29 07:08:14;;;;;;;21.15;16.20;;;3.80;99.90;;;;;;5074947;28;20127;-76
2024/01/29 07:10:39;;;;;;;21.52;17.92;;;3.80;99.90;;;;;;5066303;28;20584;-76
2024/01/29 07:13:05;;;;;;;23.65;16.80;;;3.90;99.90;;;;;;5082540;28;20877;-75
2024/01/29 07:15:31;;;;;;;21.08;16.15;;;3.90;99.90;;;;;;5074119;28;20401;-75
2024/01/29 07:17:57;;;;;;;21.10;17.20;;;3.80;99.90;;;;;;5074314;28;20101;-75
2024/01/29 07:20:23;;;;;;;22.27;16.92;;;3.80;99.90;;;;;;5074386;28;20567;-76
2024/01/29 07:22:48;;;;;;;26.73;16.98;;;3.80;99.90;;;;;;5073075;28;20463;-76
2024/01/29 07:25:14;;;;;;;23.30;17.65;;;3.80;99.90;;;;;;5062066;28;20051;-76
2024/01/29 07:27:39;;;;;;;23.95;17.23;;;3.80;99.90;;;;;;5068294;28;20040;-75
2024/01/29 07:30:06;;;;;;;21.48;16.88;;;3.70;99.90;;;;;;5067793;28;20048;-76
2024/01/29 07:32:31;;;;;;;19.58;17.40;;;3.70;99.90;;;;;;5070531;28;20044;-76
2024/01/29 07:35:00;;;;;;;24.15;18.30;;;3.70;99.90;;;;;;5072921;28;20101;-76
2024/01/29 07:37:27;;;;;;;24.73;17.27;;;3.60;99.90;;;;;;5075814;28;20036;-75
2024/01/29 07:39:53;;;;;;;25.40;19.00;;;3.60;99.90;;;;;;5074195;28;20458;-76
2024/01/29 07:42:19;;;;;;;21.77;17.73;;;3.60;99.90;;;;;;5074415;28;20048;-75
2024/01/29 07:44:44;;;;;;;21.08;18.35;;;3.60;99.90;;;;;;5078664;28;20044;-76
2024/01/29 07:47:10;;;;;;;24.30;18.88;;;3.60;99.90;;;;;;5068113;28;20045;-76
2024/01/29 07:49:36;;;;;;;23.80;19.77;;;3.60;99.90;;;;;;5077373;28;20052;-75
2024/01/29 07:52:02;;;;;;;21.48;18.42;;;3.60;99.90;;;;;;5076511;28;20055;-76
2024/01/29 07:54:27;;;;;;;24.92;18.70;;;3.60;99.90;;;;;;5075439;28;20044;-76
2024/01/29 07:56:53;;;;;;;24.25;19.52;;;3.60;99.90;;;;;;5075384;28;20056;-76
2024/01/29 07:59:19;;;;;;;24.75;18.35;;;3.60;99.90;;;;;;5076932;28;20044;-76
2024/01/29 08:01:45;;;;;;;22.58;18.60;;;3.60;99.90;;;;;;5076555;28;20127;-75
2024/01/29 08:04:11;;;;;;;20.95;18.25;;;3.60;99.90;;;;;;5068528;28;20059;-76
2024/01/29 08:06:37;;;;;;;20.92;18.70;;;3.70;99.90;;;;;;5079457;28;20561;-76
2024/01/29 08:09:06;;;;;;;20.65;18.27;;;3.70;99.90;;;;;;5090486;28;20040;-76
2024/01/29 08:11:32;;;;;;;21.10;18.83;;;3.70;99.90;;;;;;5078622;28;20043;-76
2024/01/29 08:13:58;;;;;;;22.77;18.05;;;3.70;99.90;;;;;;5079427;28;20047;-76
2024/01/29 08:16:24;;;;;;;22.80;18.65;;;3.80;99.90;;;;;;5076819;28;20543;-76
2024/01/29 08:18:50;;;;;;;24.02;18.58;;;3.80;99.90;;;;;;5074419;28;20047;-76
2024/01/29 08:21:16;;;;;;;25.40;19.95;;;3.90;99.90;;;;;;5076984;28;20052;-76
2024/01/29 08:23:42;;;;;;;25.20;19.05;;;3.90;99.90;;;;;;5074895;28;20039;-76
2024/01/29 08:26:08;;;;;;;26.00;17.92;;;3.90;99.90;;;;;;5075331;28;20101;-76
2024/01/29 08:28:34;;;;;;;27.58;19.60;;;3.90;99.90;;;;;;5074701;28;20044;-76
2024/01/29 08:31:00;;;;;;;21.75;19.38;;;3.90;99.90;;;;;;5092515;28;20036;-76
2024/01/29 08:33:27;;;;;;;24.65;18.33;;;4.00;99.90;;;;;;5073863;28;20051;-76
2024/01/29 08:35:53;;;;;;;27.98;20.10;;;4.00;99.90;;;;;;5070184;28;20904;-76
2024/01/29 08:38:18;;;;;;;27.38;19.00;;;4.00;99.90;;;;;;5073105;28;20044;-76
2024/01/29 08:40:44;;;;;;;27.02;19.05;;;4.10;99.90;;;;;;5080492;28;20040;-76
2024/01/29 08:43:10;;;;;;;24.58;19.80;;;4.10;99.90;;;;;;5078439;28;20040;-76
2024/01/29 08:45:36;;;;;;;28.88;20.65;;;4.20;99.90;;;;;;5085176;28;20102;-76
2024/01/29 08:48:03;;;;;;;24.15;19.75;;;4.20;99.90;;;;;;5079957;28;20052;-76
2024/01/29 08:50:30;;;;;;;23.65;19.83;;;4.20;99.90;;;;;;5074843;28;20513;-76
2024/01/29 08:52:56;;;;;;;21.73;19.05;;;4.30;99.90;;;;;;5066297;28;20789;-76
2024/01/29 08:55:22;;;;;;;25.50;21.10;;;4.30;99.90;;;;;;5069243;28;20071;-76
2024/01/29 08:57:49;;;;;;;24.02;19.88;;;4.40;99.90;;;;;;5068947;28;20044;-76
2024/01/29 09:00:15;;;;;;;25.70;20.40;;;4.40;99.90;;;;;;5070829;28;20560;-81
2024/01/29 09:02:41;;;;;;;35.35;25.45;;;4.50;99.90;;;;;;5068411;28;20037;-72
2024/01/29 09:05:10;;;;;;;24.75;20.70;;;4.60;99.90;;;;;;5080014;28;20036;-72
2024/01/29 09:07:36;;;;;;;27.27;21.20;;;4.60;99.90;;;;;;5082843;28;20484;-72
2024/01/29 09:10:01;;;;;;;25.60;20.95;;;4.70;99.90;;;;;;5073771;28;20125;-72
2024/01/29 09:12:27;;;;;;;24.60;21.60;;;4.70;99.90;;;;;;5070449;28;20046;-72
2024/01/29 09:14:52;;;;;;;28.60;20.73;;;4.80;99.90;;;;;;5078929;28;20083;-72
2024/01/29 09:17:19;;;;;;;27.80;22.13;;;4.90;99.90;;;;;;5075217;28;20055;-72
2024/01/29 09:19:45;;;;;;;25.10;20.35;;;4.90;99.90;;;;;;5071557;28;20047;-72
2024/01/29 09:22:13;;;;;;;30.25;23.08;;;5.00;99.90;;;;;;5074085;28;20032;-72
2024/01/29 09:24:39;;;;;;;27.00;22.48;;;5.00;99.90;;;;;;5071345;28;20047;-72
2024/01/29 09:27:05;;;;;;;32.95;22.83;;;5.10;99.90;;;;;;5078031;28;20405;-72
2024/01/29 09:29:30;;;;;;;26.00;23.10;;;5.20;99.90;;;;;;5059690;28;20043;-72
2024/01/29 09:31:56;;;;;;;28.40;21.85;;;5.20;99.90;;;;;;5072089;28;20390;-72
2024/01/29 09:34:24;;;;;;;28.98;21.88;;;5.30;99.90;;;;;;5079135;28;20049;-72
2024/01/29 09:36:50;;;;;;;29.27;23.02;;;5.40;99.90;;;;;;5057020;28;20063;-72
2024/01/29 09:39:15;;;;;;;27.17;23.63;;;5.50;99.90;;;;;;5074561;28;20044;-72
2024/01/29 09:41:42;;;;;;;31.05;25.02;;;5.60;99.90;;;;;;5080550;28;20040;-72
2024/01/29 09:44:09;;;;;;;31.40;24.05;;;5.70;99.90;;;;;;5081474;28;20048;-73
2024/01/29 09:46:38;;;;;;;32.10;24.52;;;5.80;99.90;;;;;;5081738;28;20040;-73
2024/01/29 09:49:04;;;;;;;36.30;25.58;;;5.90;99.90;;;;;;5076701;28;20119;-72
2024/01/29 09:51:33;;;;;;;33.42;26.75;;;6.00;99.90;;;;;;5063441;28;20040;-72
2024/01/29 09:54:00;;;;;;;35.72;25.90;;;6.20;99.90;;;;;;5084468;28;20727;-72
2024/01/29 09:56:25;;;;;;;31.25;25.25;;;6.30;99.90;;;;;;5088262;28;20048;-72
2024/01/29 09:58:51;;;;;;;35.70;26.85;;;6.40;99.90;;;;;;5081127;28;20523;-72
2024/01/29 10:01:20;;;;;;;35.88;25.58;;;6.60;99.90;;;;;;5084327;28;20056;-72
2024/01/29 10:03:46;;;;;;;;;;;6.70;99.90;;;;;;5076155;28;20041;-72
2024/01/29 10:06:12;;;;;;;34.40;26.10;;;6.80;99.90;;;;;;5079250;28;20076;-72
2024/01/29 10:08:39;;;;;;;40.75;26.80;;;6.90;99.90;;;;;;5081094;28;20055;-72
2024/01/29 10:11:05;;;;;;;38.13;26.95;;;7.10;99.90;;;;;;5088979;28;20532;-72
2024/01/29 10:13:31;;;;;;;38.33;29.80;;;7.20;99.90;;;;;;5088582;28;20048;-72
2024/01/29 10:15:58;;;;;;;40.55;29.42;;;7.40;99.90;;;;;;5077555;28;20052;-73
2024/01/29 10:18:23;;;;;;;42.10;29.75;;;7.50;99.90;;;;;;5071168;28;20071;-72
2024/01/29 10:21:00;;;;;;;44.42;31.52;;;7.70;99.90;;;;;;5072119;28;20056;-73
2024/01/29 10:23:26;;;;;;;39.42;30.02;;;7.90;99.90;;;;;;5075251;28;20051;-73
2024/01/29 10:25:56;;;;;;;50.00;32.83;;;7.90;99.90;;;;;;5070734;28;20052;-72
2024/01/29 10:28:23;;;;;;;43.55;32.95;;;8.10;99.90;;;;;;5071423;28;20039;-72
2024/01/29 10:30:50;;;;;;;51.70;34.53;;;8.20;99.90;;;;;;5073008;28;20113;-72
2024/01/29 10:33:15;;;;;;;52.47;34.85;;;8.30;99.90;;;;;;5077819;28;20106;-72
2024/01/29 10:35:41;;;;;;;48.85;35.22;;;8.30;99.90;;;;;;5073676;28;20050;-72
2024/01/29 10:38:07;;;;;;;51.58;35.40;;;8.40;99.90;;;;;;5077804;28;20036;-72
2024/01/29 10:40:34;;;;;;;52.10;34.80;;;8.50;99.90;;;;;;5078704;28;20040;-72
2024/01/29 10:43:00;;;;;;;57.10;35.55;;;8.50;99.90;;;;;;5074806;28;20099;-73
2024/01/29 10:45:27;;;;;;;64.03;36.92;;;8.60;99.90;;;;;;5064634;28;20039;-76
2024/01/29 10:48:02;;;;;;;59.75;39.90;;;8.70;99.90;;;;;;5078774;28;20048;-75
2024/01/29 10:50:28;;;;;;;59.22;37.55;;;8.80;99.90;;;;;;5075202;28;20048;-77
2024/01/29 10:52:54;;;;;;;61.65;39.13;;;8.90;99.90;;;;;;5074555;28;20043;-75
2024/01/29 10:55:20;;;;;;;62.22;38.80;;;9.00;99.90;;;;;;5073024;28;20104;-75
2024/01/29 10:57:47;;;;;;;54.60;37.95;;;9.10;99.90;;;;;;5080476;28;20456;-75
2024/01/29 11:00:17;;;;;;;65.95;40.88;;;9.30;99.90;;;;;;5080248;28;20052;-75
2024/01/29 11:02:44;;;;;;;63.60;40.67;;;9.30;99.90;;;;;;5078379;28;20048;-75
2024/01/29 11:05:11;;;;;;;59.05;41.15;;;9.40;99.90;;;;;;5081952;28;20040;-74
2024/01/29 11:07:39;;;;;;;64.05;39.88;;;9.50;99.90;;;;;;5072876;28;20823;-75
2024/01/29 11:10:07;;;;;;;68.32;42.13;;;9.40;99.90;;;;;;5062329;28;20047;-75
2024/01/29 11:12:35;;;;;;;68.65;43.40;;;9.50;99.90;;;;;;5069802;28;20046;-75
2024/01/29 11:15:04;;;;;;;66.70;43.42;;;9.50;99.90;;;;;;5067828;28;20101;-75
2024/01/29 11:17:29;;;;;;;62.22;41.22;;;9.60;99.90;;;;;;5079830;28;20585;-76
2024/01/29 11:20:02;;;;;;;63.92;42.30;;;9.60;99.90;;;;;;5084123;28;20140;-76
2024/01/29 11:22:38;;;;;;;69.60;44.42;;;9.70;99.90;;;;;;5074610;28;20044;-76
2024/01/29 11:25:12;;;;;;;72.25;43.95;;;9.80;99.90;;;;;;5087187;28;20067;-76
2024/01/29 11:27:39;;;;;;;70.35;44.13;;;9.90;99.90;;;;;;5084133;28;20566;-75
2024/01/29 11:30:12;;;;;;;67.85;43.67;;;9.90;99.90;;;;;;5078937;28;20048;-75
2024/01/29 11:32:40;;;;;;;74.15;46.20;;;10.00;99.90;;;;;;5081256;28;20115;-75
2024/01/29 11:35:13;;;;;;;75.07;44.28;;;10.10;99.90;;;;;;5086164;28;20097;-75
2024/01/29 11:37:40;;;;;;;69.72;42.92;;;10.10;99.90;;;;;;5079994;28;20050;-75
2024/01/29 11:40:33;;;;;;;66.28;45.50;;;10.20;99.90;;;;;;5079289;28;20048;-76
2024/01/29 11:43:21;;;;;;;69.60;43.58;;;10.30;99.90;;;;;;5060640;28;20648;-75
2024/01/29 11:45:51;;;;;;;70.28;44.75;;;10.40;99.90;;;;;;5088888;28;20040;-76
2024/01/29 11:48:19;;;;;;;69.25;44.83;;;10.40;99.90;;;;;;5075895;28;20039;-76
2024/01/29 11:50:46;;;;;;;90.18;48.78;;;10.50;99.90;;;;;;5077264;28;20138;-76
2024/01/29 11:53:14;;;;;;;74.87;48.87;;;10.50;99.90;;;;;;5083659;28;20055;-75
2024/01/29 11:55:40;;;;;;;70.95;45.95;;;10.70;99.90;;;;;;5084496;28;20524;-75
2024/01/29 11:58:13;;;;;;;71.35;45.55;;;10.60;99.90;;;;;;5076555;28;20508;-76
2024/01/29 12:00:40;;;;;;;75.93;46.50;;;10.70;99.90;;;;;;5103406;27;20048;-75
2024/01/29 12:03:12;;;;;;;75.00;45.97;;;10.70;99.90;;;;;;5080817;28;20543;-75
2024/01/29 12:05:38;;;;;;;73.35;48.55;;;10.70;99.90;;;;;;5066783;28;20500;-76
2024/01/29 12:08:10;;;;;;;73.47;45.90;;;10.70;99.90;;;;;;5068827;28;20048;-76
2024/01/29 12:10:36;;;;;;;69.72;45.75;;;10.70;99.90;;;;;;5069629;28;20071;-76
2024/01/29 12:13:02;;;;;;;74.72;46.92;;;10.70;99.90;;;;;;5075176;28;20520;-76
2024/01/29 12:15:28;;;;;;;85.85;50.92;;;10.60;99.90;;;;;;5072598;28;20040;-75
2024/01/29 12:17:53;;;;;;;79.72;50.60;;;10.60;99.90;;;;;;5088834;28;20564;-76
2024/01/29 12:20:19;;;;;;;73.35;47.15;;;10.50;99.90;;;;;;5069236;28;20044;-76
2024/01/29 12:22:45;;;;;;;67.63;45.85;;;10.50;99.90;;;;;;5073456;28;20056;-76
2024/01/29 12:25:12;;;;;;;74.97;48.65;;;10.40;99.90;;;;;;5081726;28;20036;-75
2024/01/29 12:27:41;;;;;;;68.70;45.47;;;10.40;99.90;;;;;;5076010;28;20056;-76
2024/01/29 12:30:14;;;;;;;69.05;46.35;;;10.30;99.90;;;;;;5073179;28;20044;-75
2024/01/29 12:32:42;;;;;;;64.55;45.10;;;10.30;99.90;;;;;;5070938;28;20063;-76